sensor_id;sensor_type;location;lat;lon;timestamp;pressure;altitude;pressure_sealevel;temperature;humidity
69171;BME280;56279;47.902;12.308;2023-01-28T00:00:08;95703.59;;;-0.99;92.40
69171;BME280;56279;47.902;12.308;2023-01-28T00:02:13;95710.56;;;-1.00;92.27
69171;BME280;56279;47.902;12.308;2023-01-28T00:04:15;95708.78;;;-0.99;92.60
69171;BME280;56279;47.902;12.308;2023-01-28T00:06:16;95711.97;;;-0.97;92.74
69171;BME280;56279;47.902;12.308;2023-01-28T00:08:19;95703.81;;;-0.94;92.74
69171;BME280;56279;47.902;12.308;2023-01-28T00:10:20;95709.38;;;-0.91;92.43
69171;BME280;56279;47.902;12.308;2023-01-28T00:12:21;95699.84;;;-0.90;92.49
69171;BME280;56279;47.902;12.308;2023-01-28T00:14:22;95700.44;;;-0.88;92.76
69171;BME280;56279;47.902;12.308;2023-01-28T00:16:24;95698.44;;;-0.86;92.00
69171;BME280;56279;47.902;12.308;2023-01-28T00:18:27;95701.66;;;-0.84;92.63
69171;BME280;56279;47.902;12.308;2023-01-28T00:20:29;95691.09;;;-0.83;92.50
69171;BME280;56279;47.902;12.308;2023-01-28T00:22:30;95696.88;;;-0.87;91.68
69171;BME280;56279;47.902;12.308;2023-01-28T00:24:32;95705.81;;;-0.90;92.24
69171;BME280;56279;47.902;12.308;2023-01-28T00:26:33;95702.63;;;-0.92;92.66
69171;BME280;56279;47.902;12.308;2023-01-28T00:28:34;95702.81;;;-0.93;92.41
69171;BME280;56279;47.902;12.308;2023-01-28T00:30:38;95706.78;;;-0.97;92.69
69171;BME280;56279;47.902;12.308;2023-01-28T00:32:41;95702.41;;;-0.97;92.60
69171;BME280;56279;47.902;12.308;2023-01-28T00:34:43;95705.81;;;-0.96;92.85
69171;BME280;56279;47.902;12.308;2023-01-28T00:36:44;95704.19;;;-0.97;92.73
69171;BME280;56279;47.902;12.308;2023-01-28T00:38:51;95705.22;;;-0.98;92.97
69171;BME280;56279;47.902;12.308;2023-01-28T00:40:53;95702.19;;;-1.02;92.42
69171;BME280;56279;47.902;12.308;2023-01-28T00:42:55;95709.38;;;-1.04;92.47
69171;BME280;56279;47.902;12.308;2023-01-28T00:44:56;95707.00;;;-1.05;92.87
69171;BME280;56279;47.902;12.308;2023-01-28T00:46:57;95708.16;;;-1.08;92.38
69171;BME280;56279;47.902;12.308;2023-01-28T00:48:58;95701.81;;;-1.05;92.89
69171;BME280;56279;47.902;12.308;2023-01-28T00:51:00;95702.41;;;-1.03;92.76
69171;BME280;56279;47.902;12.308;2023-01-28T00:53:01;95701.41;;;-1.02;92.72
69171;BME280;56279;47.902;12.308;2023-01-28T00:55:03;95703.38;;;-1.04;92.52
69171;BME280;56279;47.902;12.308;2023-01-28T00:57:04;95703.38;;;-1.04;93.13
69171;BME280;56279;47.902;12.308;2023-01-28T00:59:07;95709.56;;;-1.05;92.83
69171;BME280;56279;47.902;12.308;2023-01-28T01:01:17;95702.59;;;-1.05;92.77
69171;BME280;56279;47.902;12.308;2023-01-28T01:03:21;95700.00;;;-1.05;93.11
69171;BME280;56279;47.902;12.308;2023-01-28T01:05:22;95708.78;;;-1.06;92.96
69171;BME280;56279;47.902;12.308;2023-01-28T01:07:26;95704.19;;;-1.04;93.11
69171;BME280;56279;47.902;12.308;2023-01-28T01:09:41;95705.97;;;-1.04;92.74
69171;BME280;56279;47.902;12.308;2023-01-28T01:11:42;95707.16;;;-1.07;92.78
69171;BME280;56279;47.902;12.308;2023-01-28T01:13:43;95707.38;;;-1.08;93.24
69171;BME280;56279;47.902;12.308;2023-01-28T01:15:45;95702.41;;;-1.10;92.61
69171;BME280;56279;47.902;12.308;2023-01-28T01:17:47;95703.16;;;-1.09;92.60
69171;BME280;56279;47.902;12.308;2023-01-28T01:19:49;95704.56;;;-1.07;92.94
69171;BME280;56279;47.902;12.308;2023-01-28T01:21:51;95708.16;;;-1.08;92.85
69171;BME280;56279;47.902;12.308;2023-01-28T01:23:54;95706.78;;;-1.10;92.86
69171;BME280;56279;47.902;12.308;2023-01-28T01:25:56;95709.53;;;-1.12;92.62
69171;BME280;56279;47.902;12.308;2023-01-28T01:27:58;95716.53;;;-1.12;92.92
69171;BME280;56279;47.902;12.308;2023-01-28T01:30:00;95708.94;;;-1.14;93.03
69171;BME280;56279;47.902;12.308;2023-01-28T01:32:01;95707.75;;;-1.11;92.70
69171;BME280;56279;47.902;12.308;2023-01-28T01:34:03;95704.19;;;-1.10;92.93
69171;BME280;56279;47.902;12.308;2023-01-28T01:36:04;95715.50;;;-1.11;92.66
69171;BME280;56279;47.902;12.308;2023-01-28T01:38:06;95713.72;;;-1.11;93.21
69171;BME280;56279;47.902;12.308;2023-01-28T01:40:08;95715.13;;;-1.08;92.95
69171;BME280;56279;47.902;12.308;2023-01-28T01:42:11;95714.94;;;-1.07;92.97
69171;BME280;56279;47.902;12.308;2023-01-28T01:46:52;95717.94;;;-1.10;92.73
69171;BME280;56279;47.902;12.308;2023-01-28T01:48:55;95725.69;;;-1.10;93.17
69171;BME280;56279;47.902;12.308;2023-01-28T01:53:03;95725.88;;;-1.11;92.86
69171;BME280;56279;47.902;12.308;2023-01-28T01:55:11;95726.69;;;-1.11;92.99
69171;BME280;56279;47.902;12.308;2023-01-28T01:57:18;95727.47;;;-1.10;93.26
69171;BME280;56279;47.902;12.308;2023-01-28T01:59:25;95728.28;;;-1.10;93.20
69171;BME280;56279;47.902;12.308;2023-01-28T02:01:29;95723.09;;;-1.10;92.82
69171;BME280;56279;47.902;12.308;2023-01-28T02:03:54;95727.28;;;-1.09;93.09
69171;BME280;56279;47.902;12.308;2023-01-28T02:05:57;95730.69;;;-1.08;92.99
69171;BME280;56279;47.902;12.308;2023-01-28T02:07:59;95735.03;;;-1.09;93.06
69171;BME280;56279;47.902;12.308;2023-01-28T02:10:21;95729.88;;;-1.09;92.87
69171;BME280;56279;47.902;12.308;2023-01-28T02:12:28;95728.09;;;-1.08;92.94
69171;BME280;56279;47.902;12.308;2023-01-28T02:14:34;95730.69;;;-1.08;93.00
69171;BME280;56279;47.902;12.308;2023-01-28T02:16:37;95733.25;;;-1.08;93.13
69171;BME280;56279;47.902;12.308;2023-01-28T02:18:38;95733.06;;;-1.07;92.94
69171;BME280;56279;47.902;12.308;2023-01-28T02:23:26;95730.88;;;-1.10;92.82
69171;BME280;56279;47.902;12.308;2023-01-28T02:25:54;95734.25;;;-1.09;93.12
69171;BME280;56279;47.902;12.308;2023-01-28T02:30:17;95737.03;;;-1.11;92.88
69171;BME280;56279;47.902;12.308;2023-01-28T02:32:28;95734.44;;;-1.11;93.13
69171;BME280;56279;47.902;12.308;2023-01-28T02:34:45;95743.19;;;-1.12;92.98
69171;BME280;56279;47.902;12.308;2023-01-28T02:36:57;95740.81;;;-1.13;93.11
69171;BME280;56279;47.902;12.308;2023-01-28T02:39:02;95741.00;;;-1.15;92.81
69171;BME280;56279;47.902;12.308;2023-01-28T02:41:12;95743.78;;;-1.16;93.12
69171;BME280;56279;47.902;12.308;2023-01-28T02:43:15;95741.38;;;-1.18;93.11
69171;BME280;56279;47.902;12.308;2023-01-28T02:45:24;95740.59;;;-1.18;92.70
69171;BME280;56279;47.902;12.308;2023-01-28T02:47:47;95736.41;;;-1.19;92.96
69171;BME280;56279;47.902;12.308;2023-01-28T02:50:15;95741.59;;;-1.19;92.75
69171;BME280;56279;47.902;12.308;2023-01-28T02:55:12;95742.56;;;-1.20;93.19
69171;BME280;56279;47.902;12.308;2023-01-28T02:57:36;95749.75;;;-1.22;93.16
69171;BME280;56279;47.902;12.308;2023-01-28T03:02:11;95739.38;;;-1.29;92.84
69171;BME280;56279;47.902;12.308;2023-01-28T03:04:21;95734.34;;;-1.30;93.02
69171;BME280;56279;47.902;12.308;2023-01-28T03:06:31;95741.34;;;-1.31;92.82
69171;BME280;56279;47.902;12.308;2023-01-28T03:08:46;95740.53;;;-1.31;93.13
69171;BME280;56279;47.902;12.308;2023-01-28T03:11:08;95742.13;;;-1.30;92.96
69171;BME280;56279;47.902;12.308;2023-01-28T03:13:28;95742.53;;;-1.33;93.00
69171;BME280;56279;47.902;12.308;2023-01-28T03:15:49;95753.50;;;-1.31;93.06
69171;BME280;56279;47.902;12.308;2023-01-28T03:18:15;95747.31;;;-1.30;93.42
69171;BME280;56279;47.902;12.308;2023-01-28T03:21:03;95750.69;;;-1.30;93.03
69171;BME280;56279;47.902;12.308;2023-01-28T03:23:37;95747.31;;;-1.30;92.93
69171;BME280;56279;47.902;12.308;2023-01-28T03:26:01;95754.09;;;-1.29;93.14
69171;BME280;56279;47.902;12.308;2023-01-28T03:28:23;95752.09;;;-1.27;92.92
69171;BME280;56279;47.902;12.308;2023-01-28T03:33:22;95757.28;;;-1.27;93.65
69171;BME280;56279;47.902;12.308;2023-01-28T03:35:43;95763.47;;;-1.28;92.70
69171;BME280;56279;47.902;12.308;2023-01-28T03:38:06;95760.66;;;-1.27;92.91
69171;BME280;56279;47.902;12.308;2023-01-28T03:40:21;95762.47;;;-1.27;92.71
69171;BME280;56279;47.902;12.308;2023-01-28T03:42:22;95759.66;;;-1.26;92.88
69171;BME280;56279;47.902;12.308;2023-01-28T03:44:38;95764.06;;;-1.26;92.77
69171;BME280;56279;47.902;12.308;2023-01-28T03:46:53;95765.03;;;-1.27;93.24
69171;BME280;56279;47.902;12.308;2023-01-28T03:48:55;95770.81;;;-1.25;92.86
69171;BME280;56279;47.902;12.308;2023-01-28T03:50:57;95776.81;;;-1.25;93.13
69171;BME280;56279;47.902;12.308;2023-01-28T03:53:03;95778.22;;;-1.22;93.10
69171;BME280;56279;47.902;12.308;2023-01-28T03:55:24;95774.44;;;-1.20;92.96
69171;BME280;56279;47.902;12.308;2023-01-28T03:57:27;95771.84;;;-1.20;92.94
69171;BME280;56279;47.902;12.308;2023-01-28T03:59:32;95769.25;;;-1.20;92.98
69171;BME280;56279;47.902;12.308;2023-01-28T04:01:33;95770.84;;;-1.19;93.01
69171;BME280;56279;47.902;12.308;2023-01-28T04:03:36;95767.28;;;-1.18;93.24
69171;BME280;56279;47.902;12.308;2023-01-28T04:07:43;95769.06;;;-1.18;93.31
69171;BME280;56279;47.902;12.308;2023-01-28T04:10:14;95769.88;;;-1.18;93.04
69171;BME280;56279;47.902;12.308;2023-01-28T04:12:31;95775.66;;;-1.16;92.79
69171;BME280;56279;47.902;12.308;2023-01-28T04:14:32;95773.06;;;-1.16;93.06
69171;BME280;56279;47.902;12.308;2023-01-28T04:16:44;95781.03;;;-1.17;93.08
69171;BME280;56279;47.902;12.308;2023-01-28T04:18:46;95782.22;;;-1.20;92.76
69171;BME280;56279;47.902;12.308;2023-01-28T04:20:48;95776.44;;;-1.22;92.94
69171;BME280;56279;47.902;12.308;2023-01-28T04:22:51;95783.75;;;-1.25;93.04
69171;BME280;56279;47.902;12.308;2023-01-28T04:24:54;95788.94;;;-1.25;92.88
69171;BME280;56279;47.902;12.308;2023-01-28T04:26:55;95783.16;;;-1.27;93.05
69171;BME280;56279;47.902;12.308;2023-01-28T04:28:57;95784.34;;;-1.30;92.98
69171;BME280;56279;47.902;12.308;2023-01-28T04:30:59;95788.13;;;-1.32;93.56
69171;BME280;56279;47.902;12.308;2023-01-28T04:33:16;95791.50;;;-1.32;93.07
69171;BME280;56279;47.902;12.308;2023-01-28T04:35:29;95793.28;;;-1.32;93.08
69171;BME280;56279;47.902;12.308;2023-01-28T04:37:44;95793.13;;;-1.31;93.07
69171;BME280;56279;47.902;12.308;2023-01-28T04:40:09;95799.66;;;-1.35;92.79
69171;BME280;56279;47.902;12.308;2023-01-28T04:42:27;95796.88;;;-1.33;93.23
69171;BME280;56279;47.902;12.308;2023-01-28T04:44:43;95805.25;;;-1.31;93.32
69171;BME280;56279;47.902;12.308;2023-01-28T04:46:53;95801.06;;;-1.32;93.22
69171;BME280;56279;47.902;12.308;2023-01-28T04:49:13;95797.88;;;-1.34;93.08
69171;BME280;56279;47.902;12.308;2023-01-28T04:51:21;95801.06;;;-1.32;93.10
69171;BME280;56279;47.902;12.308;2023-01-28T04:53:45;95808.22;;;-1.34;92.72
69171;BME280;56279;47.902;12.308;2023-01-28T04:56:01;95807.25;;;-1.33;93.39
69171;BME280;56279;47.902;12.308;2023-01-28T04:58:06;95810.59;;;-1.33;93.14
69171;BME280;56279;47.902;12.308;2023-01-28T05:00:09;95812.00;;;-1.30;93.40
69171;BME280;56279;47.902;12.308;2023-01-28T05:02:11;95809.25;;;-1.29;93.17
69171;BME280;56279;47.902;12.308;2023-01-28T05:04:13;95814.22;;;-1.27;92.97
69171;BME280;56279;47.902;12.308;2023-01-28T05:06:14;95815.03;;;-1.27;92.86
69171;BME280;56279;47.902;12.308;2023-01-28T05:08:21;95816.00;;;-1.28;93.07
69171;BME280;56279;47.902;12.308;2023-01-28T05:10:23;95816.81;;;-1.27;93.13
69171;BME280;56279;47.902;12.308;2023-01-28T05:12:25;95817.00;;;-1.29;92.94
69171;BME280;56279;47.902;12.308;2023-01-28T05:14:29;95825.59;;;-1.28;93.31
69171;BME280;56279;47.902;12.308;2023-01-28T05:16:43;95823.00;;;-1.28;93.42
69171;BME280;56279;47.902;12.308;2023-01-28T05:18:45;95828.78;;;-1.26;93.16
69171;BME280;56279;47.902;12.308;2023-01-28T05:20:53;95827.16;;;-1.27;93.33
69171;BME280;56279;47.902;12.308;2023-01-28T05:22:54;95821.38;;;-1.29;93.30
69171;BME280;56279;47.902;12.308;2023-01-28T05:24:59;95818.19;;;-1.31;93.35
69171;BME280;56279;47.902;12.308;2023-01-28T05:27:01;95822.38;;;-1.30;92.98
69171;BME280;56279;47.902;12.308;2023-01-28T05:29:03;95825.97;;;-1.31;93.55
69171;BME280;56279;47.902;12.308;2023-01-28T05:31:06;95824.94;;;-1.30;93.43
69171;BME280;56279;47.902;12.308;2023-01-28T05:33:07;95826.75;;;-1.31;93.24
69171;BME280;56279;47.902;12.308;2023-01-28T05:35:09;95829.34;;;-1.31;93.11
69171;BME280;56279;47.902;12.308;2023-01-28T05:37:10;95824.34;;;-1.32;93.36
69171;BME280;56279;47.902;12.308;2023-01-28T05:39:13;95828.56;;;-1.31;93.39
69171;BME280;56279;47.902;12.308;2023-01-28T05:41:15;95839.72;;;-1.31;93.34
69171;BME280;56279;47.902;12.308;2023-01-28T05:43:19;95834.34;;;-1.29;93.56
69171;BME280;56279;47.902;12.308;2023-01-28T05:45:26;95839.31;;;-1.28;93.35
69171;BME280;56279;47.902;12.308;2023-01-28T05:47:38;95843.88;;;-1.30;93.20
69171;BME280;56279;47.902;12.308;2023-01-28T05:49:53;95846.06;;;-1.33;93.33
69171;BME280;56279;47.902;12.308;2023-01-28T05:52:12;95844.66;;;-1.36;93.56
69171;BME280;56279;47.902;12.308;2023-01-28T05:54:14;95854.00;;;-1.35;93.40
69171;BME280;56279;47.902;12.308;2023-01-28T05:56:15;95849.63;;;-1.34;93.41
69171;BME280;56279;47.902;12.308;2023-01-28T05:58:17;95854.81;;;-1.34;93.36
69171;BME280;56279;47.902;12.308;2023-01-28T06:00:18;95854.81;;;-1.34;93.62
69171;BME280;56279;47.902;12.308;2023-01-28T06:02:20;95853.22;;;-1.35;93.43
69171;BME280;56279;47.902;12.308;2023-01-28T06:04:22;95860.97;;;-1.35;93.21
69171;BME280;56279;47.902;12.308;2023-01-28T06:06:23;95861.97;;;-1.36;93.46
69171;BME280;56279;47.902;12.308;2023-01-28T06:08:26;95858.78;;;-1.38;93.49
69171;BME280;56279;47.902;12.308;2023-01-28T06:10:27;95864.75;;;-1.38;93.61
69171;BME280;56279;47.902;12.308;2023-01-28T06:12:30;95867.34;;;-1.38;93.46
69171;BME280;56279;47.902;12.308;2023-01-28T06:14:57;95861.34;;;-1.38;93.51
69171;BME280;56279;47.902;12.308;2023-01-28T06:17:21;95872.50;;;-1.38;93.40
69171;BME280;56279;47.902;12.308;2023-01-28T06:19:36;95870.69;;;-1.38;93.57
69171;BME280;56279;47.902;12.308;2023-01-28T06:21:37;95867.34;;;-1.38;93.22
69171;BME280;56279;47.902;12.308;2023-01-28T06:23:39;95865.53;;;-1.38;93.26
69171;BME280;56279;47.902;12.308;2023-01-28T06:25:43;95871.34;;;-1.35;93.55
69171;BME280;56279;47.902;12.308;2023-01-28T06:27:46;95875.50;;;-1.34;93.10
69171;BME280;56279;47.902;12.308;2023-01-28T06:29:48;95879.72;;;-1.33;93.17
69171;BME280;56279;47.902;12.308;2023-01-28T06:31:51;95883.06;;;-1.33;93.24
69171;BME280;56279;47.902;12.308;2023-01-28T06:33:53;95882.91;;;-1.31;93.25
69171;BME280;56279;47.902;12.308;2023-01-28T06:35:54;95888.09;;;-1.31;93.35
69171;BME280;56279;47.902;12.308;2023-01-28T06:37:56;95889.66;;;-1.30;93.19
69171;BME280;56279;47.902;12.308;2023-01-28T06:39:57;95893.88;;;-1.29;93.60
69171;BME280;56279;47.902;12.308;2023-01-28T06:41:59;95886.91;;;-1.29;93.24
69171;BME280;56279;47.902;12.308;2023-01-28T06:44:00;95891.06;;;-1.28;93.25
69171;BME280;56279;47.902;12.308;2023-01-28T06:46:02;95886.09;;;-1.29;93.67
69171;BME280;56279;47.902;12.308;2023-01-28T06:48:03;95891.06;;;-1.28;93.37
69171;BME280;56279;47.902;12.308;2023-01-28T06:50:06;95888.31;;;-1.26;93.52
69171;BME280;56279;47.902;12.308;2023-01-28T06:52:07;95890.72;;;-1.25;93.27
69171;BME280;56279;47.902;12.308;2023-01-28T06:54:08;95891.50;;;-1.24;93.33
69171;BME280;56279;47.902;12.308;2023-01-28T06:56:10;95887.91;;;-1.23;93.48
69171;BME280;56279;47.902;12.308;2023-01-28T06:58:11;95897.50;;;-1.24;93.23
69171;BME280;56279;47.902;12.308;2023-01-28T07:00:13;95899.09;;;-1.23;93.56
69171;BME280;56279;47.902;12.308;2023-01-28T07:02:16;95896.31;;;-1.21;93.42
69171;BME280;56279;47.902;12.308;2023-01-28T07:04:17;95909.88;;;-1.19;93.25
69171;BME280;56279;47.902;12.308;2023-01-28T07:06:18;95902.09;;;-1.19;93.28
69171;BME280;56279;47.902;12.308;2023-01-28T07:08:20;95912.06;;;-1.16;93.29
69171;BME280;56279;47.902;12.308;2023-01-28T07:10:22;95907.88;;;-1.17;93.52
69171;BME280;56279;47.902;12.308;2023-01-28T07:12:26;95908.50;;;-1.15;93.17
69171;BME280;56279;47.902;12.308;2023-01-28T07:14:29;95910.06;;;-1.14;92.93
69171;BME280;56279;47.902;12.308;2023-01-28T07:16:30;95911.09;;;-1.15;93.05
69171;BME280;56279;47.902;12.308;2023-01-28T07:18:31;95910.06;;;-1.14;93.01
69171;BME280;56279;47.902;12.308;2023-01-28T07:20:32;95912.66;;;-1.14;93.07
69171;BME280;56279;47.902;12.308;2023-01-28T07:22:33;95914.47;;;-1.15;93.14
69171;BME280;56279;47.902;12.308;2023-01-28T07:24:35;95917.06;;;-1.15;93.07
69171;BME280;56279;47.902;12.308;2023-01-28T07:26:36;95913.31;;;-1.12;93.19
69171;BME280;56279;47.902;12.308;2023-01-28T07:28:37;95908.72;;;-1.10;93.43
69171;BME280;56279;47.902;12.308;2023-01-28T07:30:38;95926.47;;;-1.07;92.78
69171;BME280;56279;47.902;12.308;2023-01-28T07:32:40;95923.69;;;-1.06;92.72
69171;BME280;56279;47.902;12.308;2023-01-28T07:34:41;95931.25;;;-1.04;92.91
69171;BME280;56279;47.902;12.308;2023-01-28T07:36:43;95934.47;;;-1.02;92.80
69171;BME280;56279;47.902;12.308;2023-01-28T07:38:45;95931.09;;;-1.03;92.77
69171;BME280;56279;47.902;12.308;2023-01-28T07:40:46;95929.28;;;-1.02;92.43
69171;BME280;56279;47.902;12.308;2023-01-28T07:42:49;95930.69;;;-1.00;92.74
69171;BME280;56279;47.902;12.308;2023-01-28T07:44:50;95926.94;;;-0.97;92.53
69171;BME280;56279;47.902;12.308;2023-01-28T07:46:51;95934.94;;;-0.92;92.79
69171;BME280;56279;47.902;12.308;2023-01-28T07:48:52;95937.16;;;-0.89;92.48
69171;BME280;56279;47.902;12.308;2023-01-28T07:50:57;95934.16;;;-0.86;92.46
69171;BME280;56279;47.902;12.308;2023-01-28T07:53:03;95942.16;;;-0.81;92.69
69171;BME280;56279;47.902;12.308;2023-01-28T07:55:05;95944.38;;;-0.78;92.25
69171;BME280;56279;47.902;12.308;2023-01-28T07:57:08;95944.00;;;-0.75;92.35
69171;BME280;56279;47.902;12.308;2023-01-28T07:59:09;95941.00;;;-0.72;92.26
69171;BME280;56279;47.902;12.308;2023-01-28T08:01:11;95947.59;;;-0.70;92.53
69171;BME280;56279;47.902;12.308;2023-01-28T08:03:14;95953.00;;;-0.64;92.20
69171;BME280;56279;47.902;12.308;2023-01-28T08:05:17;95952.81;;;-0.63;92.00
69171;BME280;56279;47.902;12.308;2023-01-28T08:07:19;95961.22;;;-0.61;92.14
69171;BME280;56279;47.902;12.308;2023-01-28T08:09:20;95965.41;;;-0.60;92.18
69171;BME280;56279;47.902;12.308;2023-01-28T08:11:21;95965.16;;;-0.65;91.38
69171;BME280;56279;47.902;12.308;2023-01-28T08:13:23;95963.97;;;-0.69;91.60
69171;BME280;56279;47.902;12.308;2023-01-28T08:15:25;95970.13;;;-0.70;91.76
69171;BME280;56279;47.902;12.308;2023-01-28T08:17:27;95973.53;;;-0.70;92.36
69171;BME280;56279;47.902;12.308;2023-01-28T08:19:28;95980.53;;;-0.63;91.98
69171;BME280;56279;47.902;12.308;2023-01-28T08:21:31;95980.34;;;-0.62;91.92
69171;BME280;56279;47.902;12.308;2023-01-28T08:23:32;95972.38;;;-0.60;91.63
69171;BME280;56279;47.902;12.308;2023-01-28T08:25:36;95978.34;;;-0.60;91.49
69171;BME280;56279;47.902;12.308;2023-01-28T08:27:38;95979.97;;;-0.59;91.55
69171;BME280;56279;47.902;12.308;2023-01-28T08:29:39;95983.16;;;-0.57;91.46
69171;BME280;56279;47.902;12.308;2023-01-28T08:31:41;95980.94;;;-0.60;91.16
69171;BME280;56279;47.902;12.308;2023-01-28T08:33:43;95986.94;;;-0.59;91.85
69171;BME280;56279;47.902;12.308;2023-01-28T08:35:46;95989.31;;;-0.58;91.43
69171;BME280;56279;47.902;12.308;2023-01-28T08:37:48;95988.34;;;-0.57;91.97
69171;BME280;56279;47.902;12.308;2023-01-28T08:39:49;95983.78;;;-0.55;91.39
69171;BME280;56279;47.902;12.308;2023-01-28T08:41:51;95992.72;;;-0.57;91.06
69171;BME280;56279;47.902;12.308;2023-01-28T08:43:52;95987.16;;;-0.54;92.05
69171;BME280;56279;47.902;12.308;2023-01-28T08:45:53;95990.00;;;-0.49;91.08
69171;BME280;56279;47.902;12.308;2023-01-28T08:48:03;95984.84;;;-0.43;91.15
69171;BME280;56279;47.902;12.308;2023-01-28T08:50:05;95985.28;;;-0.33;90.69
69171;BME280;56279;47.902;12.308;2023-01-28T08:52:06;95992.50;;;-0.22;91.06
69171;BME280;56279;47.902;12.308;2023-01-28T08:54:07;95989.50;;;-0.19;90.84
69171;BME280;56279;47.902;12.308;2023-01-28T08:56:08;95981.72;;;-0.19;90.40
69171;BME280;56279;47.902;12.308;2023-01-28T08:58:12;95986.53;;;-0.16;90.31
69171;BME280;56279;47.902;12.308;2023-01-28T09:00:14;95987.94;;;-0.13;90.39
69171;BME280;56279;47.902;12.308;2023-01-28T09:02:15;95989.78;;;-0.07;90.30
69171;BME280;56279;47.902;12.308;2023-01-28T09:04:17;95993.38;;;-0.02;90.23
69171;BME280;56279;47.902;12.308;2023-01-28T09:06:18;95989.00;;;-0.01;89.46
69171;BME280;56279;47.902;12.308;2023-01-28T09:08:19;95998.41;;;0.00;89.98
69171;BME280;56279;47.902;12.308;2023-01-28T09:10:20;95997.81;;;0.05;89.34
69171;BME280;56279;47.902;12.308;2023-01-28T09:12:22;95996.63;;;0.14;89.35
69171;BME280;56279;47.902;12.308;2023-01-28T09:14:23;95998.22;;;0.21;88.87
69171;BME280;56279;47.902;12.308;2023-01-28T09:16:25;95993.84;;;0.28;89.69
69171;BME280;56279;47.902;12.308;2023-01-28T09:18:26;95995.47;;;0.36;88.87
69171;BME280;56279;47.902;12.308;2023-01-28T09:20:28;95993.31;;;0.39;88.82
69171;BME280;56279;47.902;12.308;2023-01-28T09:22:29;96000.50;;;0.44;89.09
69171;BME280;56279;47.902;12.308;2023-01-28T09:24:30;96001.50;;;0.49;88.31
69171;BME280;56279;47.902;12.308;2023-01-28T09:26:32;95997.91;;;0.57;88.17
69171;BME280;56279;47.902;12.308;2023-01-28T09:28:34;95995.09;;;0.58;87.95
69171;BME280;56279;47.902;12.308;2023-01-28T09:30:35;95998.94;;;0.56;87.94
69171;BME280;56279;47.902;12.308;2023-01-28T09:32:38;95999.91;;;0.55;87.69
69171;BME280;56279;47.902;12.308;2023-01-28T09:34:40;96005.91;;;0.55;87.85
69171;BME280;56279;47.902;12.308;2023-01-28T09:36:41;96001.91;;;0.53;87.13
69171;BME280;56279;47.902;12.308;2023-01-28T09:38:43;96007.09;;;0.53;86.99
69171;BME280;56279;47.902;12.308;2023-01-28T09:40:44;96006.28;;;0.52;87.31
69171;BME280;56279;47.902;12.308;2023-01-28T09:45:24;96011.09;;;0.55;86.76
69171;BME280;56279;47.902;12.308;2023-01-28T09:47:42;96010.69;;;0.52;86.81
69171;BME280;56279;47.902;12.308;2023-01-28T09:49:47;96004.88;;;0.50;86.75
69171;BME280;56279;47.902;12.308;2023-01-28T09:51:53;96005.09;;;0.55;86.35
69171;BME280;56279;47.902;12.308;2023-01-28T09:53:56;96005.69;;;0.63;87.02
69171;BME280;56279;47.902;12.308;2023-01-28T09:56:08;95999.72;;;0.76;86.89
69171;BME280;56279;47.902;12.308;2023-01-28T09:58:14;96000.53;;;0.90;86.86
69171;BME280;56279;47.902;12.308;2023-01-28T10:00:21;95996.34;;;0.89;86.09
69171;BME280;56279;47.902;12.308;2023-01-28T10:02:46;96005.13;;;0.94;85.66
69171;BME280;56279;47.902;12.308;2023-01-28T10:05:13;95999.94;;;1.01;85.16
69171;BME280;56279;47.902;12.308;2023-01-28T10:07:31;95992.34;;;1.06;85.83
69171;BME280;56279;47.902;12.308;2023-01-28T10:12:07;95995.53;;;1.14;85.42
69171;BME280;56279;47.902;12.308;2023-01-28T10:14:36;95992.34;;;1.19;85.20
69171;BME280;56279;47.902;12.308;2023-01-28T10:16:45;95989.72;;;1.25;85.05
69171;BME280;56279;47.902;12.308;2023-01-28T10:18:57;95985.88;;;1.41;84.10
69171;BME280;56279;47.902;12.308;2023-01-28T10:21:14;95974.66;;;1.54;84.14
69171;BME280;56279;47.902;12.308;2023-01-28T10:25:29;95977.34;;;1.85;82.98
69171;BME280;56279;47.902;12.308;2023-01-28T10:27:31;95973.69;;;1.99;82.92
69171;BME280;56279;47.902;12.308;2023-01-28T10:29:33;95977.63;;;2.15;82.02
69171;BME280;56279;47.902;12.308;2023-01-28T10:31:46;95972.56;;;2.26;82.29
69171;BME280;56279;47.902;12.308;2023-01-28T10:33:51;95973.16;;;2.28;81.21
69171;BME280;56279;47.902;12.308;2023-01-28T10:35:54;95970.16;;;2.25;81.38
69171;BME280;56279;47.902;12.308;2023-01-28T10:37:59;95973.38;;;2.20;80.77
69171;BME280;56279;47.902;12.308;2023-01-28T10:40:02;95973.66;;;2.12;81.28
69171;BME280;56279;47.902;12.308;2023-01-28T10:42:26;95974.50;;;1.99;81.28
69171;BME280;56279;47.902;12.308;2023-01-28T10:44:37;95978.09;;;1.98;81.97
69171;BME280;56279;47.902;12.308;2023-01-28T10:46:44;95973.69;;;1.99;81.82
69171;BME280;56279;47.902;12.308;2023-01-28T10:49:05;95967.66;;;2.05;81.93
69171;BME280;56279;47.902;12.308;2023-01-28T10:51:11;95971.84;;;2.06;80.99
69171;BME280;56279;47.902;12.308;2023-01-28T10:53:12;95967.44;;;2.06;81.48
69171;BME280;56279;47.902;12.308;2023-01-28T10:55:14;95968.25;;;2.07;80.60
69171;BME280;56279;47.902;12.308;2023-01-28T10:57:16;95966.88;;;2.04;80.29
69171;BME280;56279;47.902;12.308;2023-01-28T10:59:26;95965.88;;;1.99;80.27
69171;BME280;56279;47.902;12.308;2023-01-28T11:01:43;95956.50;;;1.98;80.48
69171;BME280;56279;47.902;12.308;2023-01-28T11:03:55;95968.06;;;2.02;80.24
69171;BME280;56279;47.902;12.308;2023-01-28T11:05:58;95966.47;;;2.07;80.52
69171;BME280;56279;47.902;12.308;2023-01-28T11:08:14;95963.22;;;2.12;79.94
69171;BME280;56279;47.902;12.308;2023-01-28T11:10:36;95968.84;;;2.09;79.43
69171;BME280;56279;47.902;12.308;2023-01-28T11:12:39;95970.28;;;2.05;80.31
69171;BME280;56279;47.902;12.308;2023-01-28T11:16:53;95972.09;;;1.98;79.54
69171;BME280;56279;47.902;12.308;2023-01-28T11:19:01;95966.50;;;1.94;79.75
69171;BME280;56279;47.902;12.308;2023-01-28T11:21:18;95966.91;;;1.91;80.22
69171;BME280;56279;47.902;12.308;2023-01-28T11:23:31;95978.97;;;1.86;79.53
69171;BME280;56279;47.902;12.308;2023-01-28T11:25:35;95975.41;;;1.74;79.95
69171;BME280;56279;47.902;12.308;2023-01-28T11:27:37;95978.22;;;1.66;79.50
69171;BME280;56279;47.902;12.308;2023-01-28T11:29:39;95978.22;;;1.66;79.97